createdAt,value
2017-11-19T00:00:08.289Z,50.28
2017-11-19T00:02:34.496Z,50.26
2017-11-19T00:05:00.707Z,50.32
2017-11-19T00:07:26.973Z,50.38
2017-11-19T00:09:53.219Z,50.40
2017-11-19T00:12:19.417Z,50.37
2017-11-19T00:14:45.740Z,50.32
2017-11-19T00:17:11.930Z,50.30
2017-11-19T00:19:38.116Z,50.27
2017-11-19T00:22:04.462Z,50.21
2017-11-19T00:24:30.895Z,50.24
2017-11-19T00:26:57.075Z,50.22
2017-11-19T00:29:23.335Z,50.20
2017-11-19T00:31:49.526Z,50.19
2017-11-19T00:34:15.966Z,50.24
2017-11-19T00:36:42.299Z,50.24
2017-11-19T00:39:08.492Z,50.27
2017-11-19T00:41:34.922Z,50.33
2017-11-19T00:44:01.161Z,50.31
2017-11-19T00:46:27.346Z,50.26
2017-11-19T00:48:53.549Z,50.19
2017-11-19T00:51:19.906Z,50.23
2017-11-19T00:53:46.097Z,50.24
2017-11-19T00:56:12.303Z,50.23
2017-11-19T00:58:38.540Z,50.23
2017-11-19T01:01:04.796Z,50.21
2017-11-19T01:03:30.980Z,50.19
2017-11-19T01:05:57.222Z,50.19
2017-11-19T01:08:23.400Z,50.16
2017-11-19T01:10:49.597Z,50.17
2017-11-19T01:13:15.920Z,50.11
2017-11-19T01:15:42.131Z,50.11
2017-11-19T01:18:08.305Z,50.15
2017-11-19T01:20:34.710Z,50.22
2017-11-19T01:23:00.902Z,50.24
2017-11-19T01:25:27.090Z,50.18
2017-11-19T01:27:53.294Z,50.16
2017-11-19T01:30:19.482Z,50.16
2017-11-19T01:32:45.913Z,50.18
2017-11-19T01:35:12.114Z,50.21
2017-11-19T01:37:38.708Z,50.21
2017-11-19T01:40:04.935Z,50.19
2017-11-19T01:42:31.143Z,50.24
2017-11-19T01:44:57.361Z,50.19
2017-11-19T01:47:23.588Z,50.23
2017-11-19T01:49:49.802Z,50.25
2017-11-19T01:52:15.996Z,50.24
2017-11-19T01:54:42.549Z,50.28
2017-11-19T01:57:08.966Z,50.26
2017-11-19T01:59:35.147Z,50.21
2017-11-19T02:02:01.666Z,50.27
2017-11-19T02:06:59.818Z,50.30
2017-11-19T02:09:26.057Z,50.23
2017-11-19T02:11:52.230Z,50.23
2017-11-19T02:14:18.430Z,50.21
2017-11-19T02:16:44.987Z,50.18
2017-11-19T02:19:11.407Z,50.24
2017-11-19T02:21:37.611Z,50.24
2017-11-19T02:24:03.941Z,50.27
2017-11-19T02:26:30.130Z,50.24
2017-11-19T02:28:56.303Z,50.21
2017-11-19T02:31:22.636Z,50.18
2017-11-19T02:33:48.907Z,50.13
2017-11-19T02:36:15.087Z,50.16
2017-11-19T02:38:41.434Z,50.11
2017-11-19T02:41:07.874Z,50.10
2017-11-19T02:43:34.062Z,50.08
2017-11-19T02:46:00.386Z,50.09
2017-11-19T02:48:26.562Z,50.13
2017-11-19T02:50:52.774Z,50.12
2017-11-19T02:53:19.089Z,50.13
2017-11-19T02:55:45.272Z,50.11
2017-11-19T02:58:11.477Z,50.12
2017-11-19T03:00:37.810Z,50.16
2017-11-19T03:03:04.007Z,50.21
2017-11-19T03:05:30.441Z,50.26
2017-11-19T03:07:56.736Z,50.14
2017-11-19T03:10:22.931Z,50.07
2017-11-19T03:12:49.137Z,50.01
2017-11-19T03:15:15.647Z,50.05
2017-11-19T03:17:41.968Z,50.05
2017-11-19T03:20:08.144Z,50.00
2017-11-19T03:22:34.411Z,49.97
2017-11-19T03:25:00.603Z,49.99
2017-11-19T03:27:26.794Z,50.02
2017-11-19T03:29:53.059Z,50.04
2017-11-19T03:32:19.248Z,50.02
2017-11-19T03:34:45.688Z,49.96
2017-11-19T03:37:11.935Z,49.96
2017-11-19T03:39:38.164Z,49.99
2017-11-19T03:42:04.341Z,49.98
2017-11-19T03:44:30.672Z,49.96
2017-11-19T03:46:56.896Z,49.99
2017-11-19T03:49:23.122Z,50.09
2017-11-19T03:51:49.397Z,50.10
2017-11-19T03:54:15.583Z,50.06
2017-11-19T03:56:41.777Z,49.93
2017-11-19T03:59:08.090Z,49.96
2017-11-19T04:01:34.278Z,50.01
2017-11-19T04:04:00.468Z,50.07
2017-11-19T04:06:26.833Z,50.04
2017-11-19T04:08:53.016Z,50.01
2017-11-19T04:11:19.196Z,50.02
2017-11-19T04:13:45.488Z,50.01
2017-11-19T04:16:11.684Z,50.01
2017-11-19T04:18:37.978Z,50.02
2017-11-19T04:21:04.213Z,49.97
2017-11-19T04:23:30.397Z,49.99
2017-11-19T04:25:56.574Z,49.93
2017-11-19T04:28:22.820Z,49.87
2017-11-19T04:30:49.070Z,49.86
2017-11-19T04:33:15.262Z,49.92
2017-11-19T04:35:41.586Z,49.93
2017-11-19T04:38:07.777Z,49.88
2017-11-19T04:40:33.971Z,49.88
2017-11-19T04:43:00.220Z,49.89
2017-11-19T04:45:26.504Z,49.86
2017-11-19T04:47:52.678Z,49.87
2017-11-19T04:50:19.003Z,49.93
2017-11-19T04:52:45.236Z,49.98
2017-11-19T04:55:11.416Z,49.92
2017-11-19T04:57:37.661Z,50.08
2017-11-19T05:00:03.863Z,49.98
2017-11-19T05:02:30.056Z,49.91
2017-11-19T05:04:56.284Z,49.95
2017-11-19T05:07:22.462Z,50.00
2017-11-19T05:09:48.666Z,49.95
2017-11-19T05:12:14.931Z,49.96
2017-11-19T05:14:41.122Z,49.96
2017-11-19T05:17:07.306Z,49.91
2017-11-19T05:19:33.793Z,49.87
2017-11-19T05:21:59.998Z,49.81
2017-11-19T05:24:26.249Z,49.75
2017-11-19T05:26:52.751Z,49.70
2017-11-19T05:29:18.949Z,49.68
2017-11-19T05:31:45.145Z,49.61
2017-11-19T05:34:11.482Z,49.62
2017-11-19T05:36:37.920Z,49.50
2017-11-19T05:39:04.464Z,49.57
2017-11-19T05:41:30.742Z,49.54
2017-11-19T05:43:56.923Z,49.56
2017-11-19T05:46:23.451Z,49.47
2017-11-19T05:48:49.775Z,49.51
2017-11-19T05:51:15.970Z,49.53
2017-11-19T05:53:42.211Z,49.52
2017-11-19T05:56:08.548Z,49.57
2017-11-19T05:58:34.739Z,49.61
2017-11-19T06:01:00.915Z,49.60
2017-11-19T06:03:27.233Z,49.58
2017-11-19T06:05:53.419Z,49.68
2017-11-19T06:08:19.855Z,49.60
2017-11-19T06:10:46.184Z,49.64
2017-11-19T06:13:12.680Z,49.64
2017-11-19T06:15:38.876Z,49.66
2017-11-19T06:18:05.134Z,49.64
2017-11-19T06:20:31.333Z,49.51
2017-11-19T06:22:57.529Z,49.52
2017-11-19T06:25:23.878Z,49.56
2017-11-19T06:27:50.300Z,49.47
2017-11-19T06:30:16.494Z,49.60
2017-11-19T06:32:43.057Z,49.64
2017-11-19T06:35:09.239Z,49.54
2017-11-19T06:37:35.442Z,49.48
2017-11-19T06:40:01.693Z,49.45
2017-11-19T06:42:27.893Z,49.52
2017-11-19T06:44:54.330Z,49.56
2017-11-19T06:47:20.691Z,49.59
2017-11-19T06:49:46.879Z,49.56
2017-11-19T06:52:13.309Z,49.51
2017-11-19T06:54:39.585Z,49.64
2017-11-19T06:57:05.772Z,49.61
2017-11-19T06:59:31.956Z,49.60
2017-11-19T07:01:58.218Z,49.48
2017-11-19T07:04:24.414Z,49.46
2017-11-19T07:06:50.852Z,49.48
2017-11-19T07:09:17.130Z,49.57
2017-11-19T07:11:43.318Z,49.55
2017-11-19T07:14:09.540Z,49.61
2017-11-19T07:16:35.859Z,49.58
2017-11-19T07:19:02.053Z,49.52
2017-11-19T07:21:28.241Z,49.54
2017-11-19T07:23:54.503Z,49.51
2017-11-19T07:26:20.694Z,49.49
2017-11-19T07:28:46.916Z,49.41
2017-11-19T07:31:13.227Z,49.24
2017-11-19T07:33:39.470Z,49.22
2017-11-19T07:36:05.673Z,49.22
2017-11-19T07:38:31.926Z,49.30
2017-11-19T07:40:58.138Z,49.27
2017-11-19T07:43:24.430Z,49.33
2017-11-19T07:45:50.691Z,49.29
2017-11-19T07:48:17.141Z,49.39
2017-11-19T07:50:43.591Z,49.37
2017-11-19T07:53:10.077Z,49.36
2017-11-19T07:55:36.259Z,49.36
2017-11-19T07:58:02.454Z,49.40
2017-11-19T08:00:28.711Z,49.32
2017-11-19T08:02:55.012Z,49.32
2017-11-19T08:05:21.281Z,49.26
2017-11-19T08:07:47.675Z,49.17
2017-11-19T08:10:13.855Z,49.13
2017-11-19T08:12:40.033Z,49.12
2017-11-19T08:15:06.584Z,49.14
2017-11-19T08:17:32.760Z,49.10
2017-11-19T08:20:04.987Z,49.05
2017-11-19T08:22:31.326Z,49.17
2017-11-19T08:24:57.747Z,49.16
2017-11-19T08:27:23.950Z,49.09
2017-11-19T08:29:50.539Z,49.15
2017-11-19T08:32:16.995Z,49.12
2017-11-19T08:34:43.281Z,49.15
2017-11-19T08:37:09.763Z,49.06
2017-11-19T08:39:36.062Z,48.96
2017-11-19T08:42:02.248Z,48.95
2017-11-19T08:44:28.499Z,48.86
2017-11-19T08:46:54.696Z,48.63
2017-11-19T08:49:20.885Z,48.63
2017-11-19T08:51:47.216Z,48.59
2017-11-19T08:54:13.535Z,48.76
2017-11-19T08:56:39.961Z,48.73
2017-11-19T08:59:06.309Z,48.55
2017-11-19T09:01:32.493Z,48.66
2017-11-19T09:03:58.715Z,48.52
2017-11-19T09:06:25.119Z,48.39
2017-11-19T09:08:51.322Z,48.15
2017-11-19T09:11:17.509Z,48.18
2017-11-19T09:13:43.795Z,48.17
2017-11-19T09:16:10.231Z,48.31
2017-11-19T09:18:36.443Z,48.48
2017-11-19T09:21:02.783Z,48.62
2017-11-19T09:23:29.222Z,48.56
2017-11-19T09:25:55.408Z,48.54
2017-11-19T09:28:21.678Z,48.62
2017-11-19T09:30:47.894Z,48.49
2017-11-19T09:33:14.091Z,48.46
2017-11-19T09:35:40.348Z,48.41
2017-11-19T09:38:06.526Z,48.27
2017-11-19T09:40:32.737Z,48.09
2017-11-19T09:42:59.232Z,47.95
2017-11-19T09:45:25.428Z,47.98
2017-11-19T09:47:51.625Z,47.92
2017-11-19T09:50:17.883Z,48.03
2017-11-19T09:52:44.082Z,48.15
2017-11-19T09:55:10.393Z,48.42
2017-11-19T09:57:36.933Z,48.50
2017-11-19T10:00:03.386Z,48.55
2017-11-19T10:02:29.574Z,48.71
2017-11-19T10:04:56.145Z,48.74
2017-11-19T10:07:22.582Z,48.70
2017-11-19T10:09:48.778Z,48.71
2017-11-19T10:12:15.266Z,48.73
2017-11-19T10:14:41.457Z,48.74
2017-11-19T10:17:07.642Z,48.56
2017-11-19T10:19:33.970Z,48.73
2017-11-19T10:22:00.168Z,48.69
2017-11-19T10:24:26.376Z,48.62
2017-11-19T10:26:52.643Z,48.53
2017-11-19T10:29:18.829Z,48.56
2017-11-19T10:31:45.047Z,48.64
2017-11-19T10:34:11.371Z,48.64
2017-11-19T10:36:37.576Z,48.64
2017-11-19T10:39:03.766Z,48.68
2017-11-19T10:41:30.029Z,48.57
2017-11-19T10:43:56.308Z,48.54
2017-11-19T10:46:22.495Z,48.42
2017-11-19T10:48:48.832Z,48.44
2017-11-19T10:51:15.019Z,48.45
2017-11-19T10:53:41.224Z,48.58
2017-11-19T10:56:07.511Z,48.53
2017-11-19T10:58:33.766Z,48.60
2017-11-19T11:01:00.022Z,48.45
2017-11-19T11:03:26.291Z,48.36
2017-11-19T11:05:52.501Z,48.41
2017-11-19T11:08:18.701Z,48.35
2017-11-19T11:10:44.958Z,48.24
2017-11-19T11:13:11.158Z,48.14
2017-11-19T11:15:37.359Z,48.01
2017-11-19T11:18:03.630Z,47.84
2017-11-19T11:20:30.061Z,47.79
2017-11-19T11:22:56.267Z,47.66
2017-11-19T11:25:22.522Z,47.53
2017-11-19T11:27:48.720Z,47.54
2017-11-19T11:30:14.945Z,47.83
2017-11-19T11:32:41.342Z,48.14
2017-11-19T11:35:07.596Z,48.37
2017-11-19T11:37:33.831Z,48.50
2017-11-19T11:40:00.171Z,48.42
2017-11-19T11:42:26.370Z,48.24
2017-11-19T11:44:52.572Z,48.27
2017-11-19T11:47:19.059Z,48.45
2017-11-19T11:49:45.263Z,48.44
2017-11-19T11:52:11.688Z,48.37
2017-11-19T11:54:37.931Z,48.27
2017-11-19T11:57:04.147Z,48.16
2017-11-19T11:59:30.349Z,48.22
2017-11-19T12:01:56.591Z,48.25
2017-11-19T12:04:22.789Z,48.39
2017-11-19T12:06:48.995Z,48.47
2017-11-19T12:09:15.328Z,48.49
2017-11-19T12:11:41.545Z,48.51
2017-11-19T12:14:08.003Z,48.66
2017-11-19T12:16:34.324Z,48.73
2017-11-19T12:19:00.513Z,48.75
2017-11-19T12:21:26.727Z,48.76
2017-11-19T12:23:52.989Z,48.72
2017-11-19T12:26:19.178Z,48.72
2017-11-19T12:28:45.400Z,48.70
2017-11-19T12:31:11.782Z,48.74
2017-11-19T12:33:38.313Z,48.72
2017-11-19T12:36:04.505Z,48.63
2017-11-19T12:38:30.855Z,48.50
2017-11-19T12:40:57.048Z,48.33
2017-11-19T12:43:23.252Z,48.28
2017-11-19T12:45:49.614Z,48.44
2017-11-19T12:48:15.809Z,48.63
2017-11-19T12:50:42.013Z,48.78
2017-11-19T12:53:08.576Z,48.79
2017-11-19T12:55:34.800Z,48.86
2017-11-19T12:58:01.047Z,48.77
2017-11-19T13:00:27.386Z,48.80
2017-11-19T13:02:53.813Z,48.78
2017-11-19T13:05:19.997Z,48.78
2017-11-19T13:07:46.234Z,48.75
2017-11-19T13:10:12.425Z,48.81
2017-11-19T13:12:38.627Z,48.81
2017-11-19T13:15:04.897Z,48.72
2017-11-19T13:17:31.182Z,48.68
2017-11-19T13:19:57.376Z,48.57
2017-11-19T13:22:23.694Z,48.46
2017-11-19T13:24:49.886Z,48.42
2017-11-19T13:27:16.362Z,48.36
2017-11-19T13:29:42.595Z,48.41
2017-11-19T13:32:08.794Z,48.41
2017-11-19T13:34:35.176Z,48.56
2017-11-19T13:37:01.383Z,48.58
2017-11-19T13:39:27.581Z,48.61
2017-11-19T13:41:53.905Z,48.69
2017-11-19T13:44:20.111Z,48.71
2017-11-19T13:46:46.323Z,48.73
2017-11-19T13:49:12.617Z,48.75
2017-11-19T13:51:38.827Z,48.67
2017-11-19T13:54:05.052Z,48.65
2017-11-19T13:56:31.381Z,48.61
2017-11-19T13:58:57.697Z,48.67
2017-11-19T14:01:23.930Z,48.72
2017-11-19T14:03:50.195Z,48.73
2017-11-19T14:06:16.385Z,48.68
2017-11-19T14:08:42.579Z,48.66
2017-11-19T14:11:08.904Z,48.57
2017-11-19T14:13:35.103Z,48.45
2017-11-19T14:16:01.316Z,48.38
2017-11-19T14:18:27.591Z,48.31
2017-11-19T14:20:53.806Z,48.38
2017-11-19T14:23:20.241Z,48.42
2017-11-19T14:25:46.581Z,48.60
2017-11-19T14:28:12.784Z,48.73
2017-11-19T14:30:39.008Z,48.99
2017-11-19T14:33:05.369Z,49.03
2017-11-19T14:35:31.582Z,49.11
2017-11-19T14:37:57.794Z,49.09
2017-11-19T14:40:24.135Z,49.11
2017-11-19T14:42:50.341Z,49.03
2017-11-19T14:45:16.552Z,49.12
2017-11-19T14:47:42.796Z,49.15
2017-11-19T14:50:08.990Z,49.06
2017-11-19T14:52:35.316Z,49.07
2017-11-19T14:55:01.587Z,49.10
2017-11-19T14:57:28.018Z,49.15
2017-11-19T14:59:54.232Z,49.16
2017-11-19T15:02:20.560Z,49.20
2017-11-19T15:04:46.753Z,49.16
2017-11-19T15:07:13.178Z,49.16
2017-11-19T15:09:39.517Z,49.18
2017-11-19T15:12:05.708Z,49.23
2017-11-19T15:14:31.889Z,49.16
2017-11-19T15:16:58.166Z,49.14
2017-11-19T15:19:24.390Z,49.24
2017-11-19T15:21:50.598Z,49.26
2017-11-19T15:24:16.947Z,49.24
2017-11-19T15:26:43.240Z,49.37
2017-11-19T15:29:09.689Z,49.38
2017-11-19T15:31:35.887Z,49.36
2017-11-19T15:34:02.070Z,49.41
2017-11-19T15:36:28.399Z,49.37
2017-11-19T15:38:54.825Z,49.32
2017-11-19T15:41:21.026Z,49.38
2017-11-19T15:43:47.292Z,49.32
2017-11-19T15:46:13.489Z,49.31
2017-11-19T15:48:39.679Z,49.34
2017-11-19T15:51:06.018Z,49.36
2017-11-19T15:53:32.215Z,49.37
2017-11-19T15:55:58.402Z,49.44
2017-11-19T15:58:24.964Z,49.38
2017-11-19T16:00:52.099Z,49.46
2017-11-19T16:03:18.537Z,49.38
2017-11-19T16:05:45.127Z,49.47
2017-11-19T16:08:11.328Z,49.48
2017-11-19T16:10:37.850Z,49.46
2017-11-19T16:13:04.104Z,49.41
2017-11-19T16:15:30.311Z,49.42
2017-11-19T16:17:56.526Z,49.33
2017-11-19T16:20:22.877Z,49.32
2017-11-19T16:22:49.313Z,49.35
2017-11-19T16:25:15.765Z,49.33
2017-11-19T16:27:42.031Z,49.44
2017-11-19T16:30:08.225Z,49.38
2017-11-19T16:32:34.432Z,49.41
2017-11-19T16:35:01.021Z,49.38
2017-11-19T16:37:27.295Z,49.36
2017-11-19T16:39:53.561Z,49.39
2017-11-19T16:42:19.834Z,49.41
2017-11-19T16:44:46.053Z,49.43
2017-11-19T16:47:12.259Z,49.43
2017-11-19T16:49:38.531Z,49.45
2017-11-19T16:52:04.804Z,49.40
2017-11-19T16:54:31.002Z,49.43
2017-11-19T16:56:57.261Z,49.37
2017-11-19T16:59:23.799Z,49.39
2017-11-19T17:01:50.018Z,49.46
2017-11-19T17:04:16.355Z,49.43
2017-11-19T17:06:42.544Z,49.40
2017-11-19T17:09:08.748Z,49.44
2017-11-19T17:11:35.276Z,49.44
2017-11-19T17:14:01.470Z,49.38
2017-11-19T17:16:27.680Z,49.42
2017-11-19T17:18:54.029Z,49.39
2017-11-19T17:21:20.246Z,49.37
2017-11-19T17:23:46.434Z,49.38
2017-11-19T17:26:12.931Z,49.39
2017-11-19T17:28:39.135Z,49.41
2017-11-19T17:31:05.338Z,49.46
2017-11-19T17:33:31.607Z,49.49
2017-11-19T17:36:03.807Z,49.37
2017-11-19T17:38:29.998Z,49.41
2017-11-19T17:40:56.232Z,49.33
2017-11-19T17:43:22.426Z,49.33
2017-11-19T17:45:48.621Z,49.35
2017-11-19T17:48:14.951Z,49.34
2017-11-19T17:50:41.138Z,49.34
2017-11-19T17:53:07.320Z,49.32
2017-11-19T17:55:33.631Z,49.32
2017-11-19T17:57:59.827Z,49.30
2017-11-19T18:00:26.068Z,49.28
2017-11-19T18:02:52.433Z,49.26
2017-11-19T18:05:19.083Z,49.26
2017-11-19T18:07:45.288Z,49.30
2017-11-19T18:10:11.562Z,49.31
2017-11-19T18:12:37.821Z,49.30
2017-11-19T18:15:04.363Z,49.31
2017-11-19T18:17:30.635Z,49.40
2017-11-19T18:19:56.841Z,49.40
2017-11-19T18:22:23.042Z,49.40
2017-11-19T18:24:49.383Z,49.35
2017-11-19T18:27:15.583Z,49.29
2017-11-19T18:29:41.778Z,49.33
2017-11-19T18:32:08.132Z,49.30
2017-11-19T18:34:34.586Z,49.34
2017-11-19T18:37:00.786Z,49.37
2017-11-19T18:39:27.045Z,49.36
2017-11-19T18:41:53.250Z,49.37
2017-11-19T18:44:19.441Z,49.37
2017-11-19T18:46:45.931Z,49.37
2017-11-19T18:49:12.138Z,49.38
2017-11-19T18:51:38.335Z,49.37
2017-11-19T18:54:04.592Z,49.36
2017-11-19T18:56:30.790Z,49.38
2017-11-19T18:58:57.002Z,49.36
2017-11-19T19:01:23.488Z,49.32
2017-11-19T19:03:49.684Z,49.33
2017-11-19T19:06:15.981Z,49.37
2017-11-19T19:08:42.264Z,49.36
2017-11-19T19:11:08.474Z,49.39
2017-11-19T19:13:34.661Z,49.39
2017-11-19T19:16:00.935Z,49.44
2017-11-19T19:18:27.246Z,49.42
2017-11-19T19:20:53.437Z,49.57
2017-11-19T19:23:19.697Z,49.60
2017-11-19T19:25:46.110Z,49.75
2017-11-19T19:28:13.328Z,49.62
2017-11-19T19:30:39.777Z,49.86
2017-11-19T19:33:07.252Z,49.87
2017-11-19T19:35:33.457Z,49.96
2017-11-19T19:38:00.668Z,50.06
2017-11-19T19:40:28.008Z,50.06
2017-11-19T19:42:54.240Z,50.18
2017-11-19T19:45:21.481Z,50.27
2017-11-19T19:47:47.790Z,50.47
2017-11-19T19:50:14.006Z,50.16
2017-11-19T19:52:40.310Z,50.18
2017-11-19T19:55:06.722Z,50.23
2017-11-19T19:57:33.180Z,50.25
2017-11-19T19:59:59.493Z,50.39
2017-11-19T20:02:26.154Z,50.39
2017-11-19T20:04:52.409Z,50.41
2017-11-19T20:07:18.699Z,50.59
2017-11-19T20:09:45.078Z,50.65
2017-11-19T20:12:11.301Z,50.70
2017-11-19T20:14:37.720Z,50.60
2017-11-19T20:17:03.987Z,50.59
2017-11-19T20:19:30.419Z,50.67
2017-11-19T20:21:56.830Z,50.71
2017-11-19T20:24:23.198Z,50.75
2017-11-19T20:26:49.481Z,50.75
2017-11-19T20:29:15.870Z,50.87
2017-11-19T20:31:42.238Z,50.80
2017-11-19T20:34:08.512Z,50.72
2017-11-19T20:36:39.449Z,50.76
2017-11-19T20:39:11.862Z,50.79
2017-11-19T20:41:41.000Z,50.88
2017-11-19T20:44:07.331Z,50.81
2017-11-19T20:46:33.522Z,51.16
2017-11-19T20:48:59.766Z,51.38
2017-11-19T20:51:26.336Z,51.31
2017-11-19T20:53:52.525Z,51.20
2017-11-19T20:56:28.685Z,51.09
2017-11-19T20:58:55.592Z,51.13
2017-11-19T21:01:24.096Z,51.18
2017-11-19T21:06:23.358Z,51.16
2017-11-19T21:08:51.753Z,51.28
2017-11-19T21:11:34.181Z,51.30
2017-11-19T21:14:03.054Z,51.44
2017-11-19T21:16:29.322Z,51.83
2017-11-19T21:18:55.528Z,52.07
2017-11-19T21:21:21.870Z,52.34
2017-11-19T21:23:48.618Z,52.34
2017-11-19T21:26:14.846Z,52.27
2017-11-19T21:28:41.314Z,52.36
2017-11-19T21:31:07.532Z,52.66
2017-11-19T21:33:33.733Z,52.41
2017-11-19T21:36:00.063Z,52.38
2017-11-19T21:38:26.258Z,52.49
2017-11-19T21:40:52.479Z,52.62
2017-11-19T21:43:19.000Z,52.48
2017-11-19T21:45:45.196Z,52.51
2017-11-19T21:48:11.381Z,52.40
2017-11-19T21:50:38.144Z,52.38
2017-11-19T21:53:04.386Z,52.40
2017-11-19T21:55:30.663Z,52.41
2017-11-19T21:57:56.947Z,52.49
2017-11-19T22:00:23.166Z,52.52
2017-11-19T22:02:49.475Z,52.59
2017-11-19T22:05:15.879Z,52.50
2017-11-19T22:07:42.357Z,52.48
2017-11-19T22:10:08.639Z,52.50
2017-11-19T22:12:35.051Z,52.61
2017-11-19T22:15:01.276Z,52.51
2017-11-19T22:17:27.673Z,52.64
2017-11-19T22:19:54.095Z,52.71
2017-11-19T22:22:20.304Z,52.65
2017-11-19T22:24:46.506Z,52.75
2017-11-19T22:27:12.789Z,52.78
2017-11-19T22:29:39.148Z,52.77
2017-11-19T22:32:05.414Z,52.85
2017-11-19T22:34:31.741Z,52.83
2017-11-19T22:36:57.966Z,52.94
2017-11-19T22:39:24.179Z,53.05
2017-11-19T22:41:50.579Z,53.07
2017-11-19T22:44:17.834Z,53.19
2017-11-19T22:46:44.097Z,53.21
2017-11-19T22:49:10.425Z,53.25
2017-11-19T22:51:36.888Z,53.32
2017-11-19T22:54:03.159Z,53.46
2017-11-19T22:56:29.490Z,53.27
2017-11-19T22:58:55.694Z,52.84
2017-11-19T23:01:21.893Z,52.89
2017-11-19T23:03:48.387Z,53.31
2017-11-19T23:06:14.595Z,53.34
2017-11-19T23:08:40.790Z,53.39
2017-11-19T23:11:07.139Z,53.42
2017-11-19T23:13:33.338Z,53.41
2017-11-19T23:15:59.632Z,53.42
2017-11-19T23:18:25.887Z,53.34
2017-11-19T23:20:52.205Z,53.37
2017-11-19T23:23:18.454Z,53.51
2017-11-19T23:25:44.728Z,53.59
2017-11-19T23:28:11.045Z,53.68
2017-11-19T23:30:37.232Z,53.54
2017-11-19T23:33:03.521Z,53.51
2017-11-19T23:35:29.774Z,53.53
2017-11-19T23:37:56.028Z,53.47
2017-11-19T23:40:22.537Z,53.55
2017-11-19T23:42:48.807Z,53.52
2017-11-19T23:45:15.248Z,53.55
2017-11-19T23:47:41.443Z,53.58
2017-11-19T23:50:07.762Z,53.57
2017-11-19T23:52:33.983Z,53.55
2017-11-19T23:55:00.185Z,53.53
2017-11-19T23:57:27.855Z,53.50
2017-11-19T23:59:54.169Z,53.58
